Reading, MN (56165)

4:08 AM CST on February 08, 2016 (GMT -0600)
Worthington Municipal | | Change Station
CLOSE
Current Station
Airport
Location: Worthington,
Elevation: 1575 ft
Nearby Weather Stations
Active Advisory: Blizzard Warning

Elev 1575 ft 43.66 °N, 95.58 °W | Updated 13 minutes ago

Snow
Snow
16 °F
Feels Like -3 °F
N
26
Wind Variable Wind from NNW

Today
High -- | Low -- °F
--% Chance of Precip.
Yesterday
High -- | Low -- °F
Precip. -- in
Pressure 29.93 in
Visibility 2.0 miles
Clouds Overcast 1100 ft
Windchill -3 °F
Dew Point 10 °F
Humidity 79%
Rainfall 0.00 in
Snow Depth Not available.
7:31 AM 5:43 PM
Waning Crescent, 0% visible
METAR KOTG 080955Z AUTO 34023KT 2SM OVC011 M09/M12 A2993 RMK AO1
Pressure 29.93 in
Visibility 2.0 miles
Clouds Overcast 1100 ft
Windchill -3 °F
Dew Point 10 °F
Humidity 79%
Rainfall 0.00 in
Snow Depth Not available.
7:31 AM 5:43 PM
Waning Crescent, 0% visible
METAR KOTG 080955Z AUTO 34023KT 2SM OVC011 M09/M12 A2993 RMK AO1

10-Day Weather Forecast

Almanac

Astronomy

Feb. 08, 2016 Rise Set
Actual Time
Civil Twilight
Nautical Twilight
Astronomical Twilight
Moon
Length of Visible Light
Length of Day
Tomorrow will be .
, % of the Moon is Illuminated

Today's Extremes

State Highs State Lows

Community

WunderPhotos

Upload Photos

1,891,412 photos uploaded!

WunderBlog® & News

Nearby

Air Quality

  Air Quality AQ Index Pollutant
Not available.

Snow Depth

Station Depth Elevation

Earthquake Activity

City Distance Mag. Time & Date
Minimum magnitude displayed is 2.5.

Coastal Water Temperatures

Place Temperature

Stations

Nearby Weather Stations

Station Location Temp. Windchill Dew Point Humidity Wind Precip. Elev Updated Type
                   

Watches & Warnings

Blizzard Warning
Issued: 4:00 AM CST Feb. 8, 2016 – National Weather Service

... Blizzard Warning remains in effect until noon CST today...

* timing... blizzard conditions are expected through this morning.
The worst conditions will persist through mid morning... when
winds will be at their strongest.

* Winds / visibilities... winds gusting as high as 50 to 55 mph
will combine with frequent snow showers... to cause periods of
whiteout conditions in falling and blowing snow.

* Snow accumulations... additional accumulations should remain less
than a half inch through midday... however amounts could vary
greatly over small distances due to the expected showery nature
of the snowfall.

* Impacts... travel will be very difficult to impossible...
including during the morning commute on Monday.

Precautionary/preparedness actions...

A Blizzard Warning means severe winter weather conditions are
expected or occurring. Falling and blowing snow with strong winds
and poor visibilities are likely. This will lead to whiteout
conditions... making travel extremely dangerous. Do not travel. If
you must travel... have a winter survival kit with you. If you get
stranded... stay with your vehicle.